sensor_id;sensor_type;location;lat;lon;timestamp;pressure;altitude;pressure_sealevel;temperature;humidity
40460;BME280;26164;51.138;16.952;2023-02-28T00:01:27;78696.00;;;-146.39;81.06
40460;BME280;26164;51.138;16.952;2023-02-28T00:03:53;78700.09;;;-146.39;80.92
40460;BME280;26164;51.138;16.952;2023-02-28T00:06:19;78716.44;;;-146.39;80.11
40460;BME280;26164;51.138;16.952;2023-02-28T00:08:45;78704.19;;;-146.39;81.64
40460;BME280;26164;51.138;16.952;2023-02-28T00:11:13;78716.44;;;-146.39;81.72
40460;BME280;26164;51.138;16.952;2023-02-28T00:13:42;78720.53;;;-146.39;81.77
40460;BME280;26164;51.138;16.952;2023-02-28T00:16:19;78671.50;;;-146.39;81.72
40460;BME280;26164;51.138;16.952;2023-02-28T00:18:46;78673.53;;;-146.39;80.88
40460;BME280;26164;51.138;16.952;2023-02-28T00:21:19;78702.13;;;-146.39;82.99
40460;BME280;26164;51.138;16.952;2023-02-28T00:23:46;78730.72;;;-146.39;83.86
40460;BME280;26164;51.138;16.952;2023-02-28T00:26:12;78675.59;;;-146.39;82.81
40460;BME280;26164;51.138;16.952;2023-02-28T00:28:40;78679.66;;;-146.39;81.34
40460;BME280;26164;51.138;16.952;2023-02-28T00:31:06;78671.50;;;-146.39;81.68
40460;BME280;26164;51.138;16.952;2023-02-28T00:33:32;78659.25;;;-146.39;81.89
40460;BME280;26164;51.138;16.952;2023-02-28T00:36:07;78647.00;;;-146.39;81.47
40460;BME280;26164;51.138;16.952;2023-02-28T00:38:36;78638.81;;;-146.39;81.48
40460;BME280;26164;51.138;16.952;2023-02-28T00:41:02;78647.00;;;-146.39;81.77
40460;BME280;26164;51.138;16.952;2023-02-28T00:43:34;78653.13;;;-146.39;84.35
40460;BME280;26164;51.138;16.952;2023-02-28T00:46:01;78636.78;;;-146.39;83.55
40460;BME280;26164;51.138;16.952;2023-02-28T00:48:27;78642.91;;;-146.39;82.31
40460;BME280;26164;51.138;16.952;2023-02-28T00:50:53;78673.53;;;-146.39;83.38
40460;BME280;26164;51.138;16.952;2023-02-28T00:53:20;78728.69;;;-146.39;85.18
40460;BME280;26164;51.138;16.952;2023-02-28T00:55:48;78683.75;;;-146.39;84.08
40460;BME280;26164;51.138;16.952;2023-02-28T00:58:15;78696.00;;;-146.39;85.12
40460;BME280;26164;51.138;16.952;2023-02-28T01:00:40;78663.31;;;-146.39;85.10
40460;BME280;26164;51.138;16.952;2023-02-28T01:03:09;78642.91;;;-146.39;84.44
40460;BME280;26164;51.138;16.952;2023-02-28T01:05:36;78669.47;;;-146.39;85.60
40460;BME280;26164;51.138;16.952;2023-02-28T01:08:02;78700.09;;;-146.39;86.17
40460;BME280;26164;51.138;16.952;2023-02-28T01:10:28;78700.09;;;-146.39;86.00
40460;BME280;26164;51.138;16.952;2023-02-28T01:12:57;78736.88;;;-146.39;84.80
40460;BME280;26164;51.138;16.952;2023-02-28T01:15:23;78687.84;;;-146.39;84.74
40460;BME280;26164;51.138;16.952;2023-02-28T01:17:50;78687.84;;;-146.39;85.04
40460;BME280;26164;51.138;16.952;2023-02-28T01:20:16;78655.16;;;-146.39;84.62
40460;BME280;26164;51.138;16.952;2023-02-28T01:22:42;78671.50;;;-146.39;84.13
40460;BME280;26164;51.138;16.952;2023-02-28T01:25:09;78671.50;;;-146.39;84.54
40460;BME280;26164;51.138;16.952;2023-02-28T01:27:35;78667.41;;;-146.39;85.69
40460;BME280;26164;51.138;16.952;2023-02-28T01:30:02;78642.91;;;-146.39;85.36
40460;BME280;26164;51.138;16.952;2023-02-28T01:32:28;78638.81;;;-146.39;85.26
40460;BME280;26164;51.138;16.952;2023-02-28T01:34:54;78677.63;;;-146.39;85.37
40460;BME280;26164;51.138;16.952;2023-02-28T01:37:23;78712.34;;;-146.39;86.70
40460;BME280;26164;51.138;16.952;2023-02-28T01:39:48;78710.31;;;-146.39;86.31
40460;BME280;26164;51.138;16.952;2023-02-28T01:42:14;78700.09;;;-146.39;84.94
40460;BME280;26164;51.138;16.952;2023-02-28T01:47:33;78696.00;;;-146.39;85.61
40460;BME280;26164;51.138;16.952;2023-02-28T01:50:02;78714.38;;;-146.39;85.42
40460;BME280;26164;51.138;16.952;2023-02-28T01:52:31;78689.88;;;-146.39;84.60
40460;BME280;26164;51.138;16.952;2023-02-28T01:55:00;78657.19;;;-146.39;83.54
40460;BME280;26164;51.138;16.952;2023-02-28T01:57:32;78636.78;;;-146.39;83.30
40460;BME280;26164;51.138;16.952;2023-02-28T02:00:09;78630.66;;;-146.39;82.73
40460;BME280;26164;51.138;16.952;2023-02-28T02:02:43;78649.03;;;-146.39;83.63
40460;BME280;26164;51.138;16.952;2023-02-28T02:05:15;78665.38;;;-146.39;83.72
40460;BME280;26164;51.138;16.952;2023-02-28T02:07:43;78640.84;;;-146.39;82.58
40460;BME280;26164;51.138;16.952;2023-02-28T02:10:31;78622.47;;;-146.39;81.87
40460;BME280;26164;51.138;16.952;2023-02-28T02:15:57;78636.78;;;-146.39;81.03
40460;BME280;26164;51.138;16.952;2023-02-28T02:18:40;78618.38;;;-146.39;80.02
40460;BME280;26164;51.138;16.952;2023-02-28T02:34:58;78665.38;;;-146.39;80.09
40460;BME280;26164;51.138;16.952;2023-02-28T02:37:39;78636.78;;;-146.39;78.16
40460;BME280;26164;51.138;16.952;2023-02-28T02:40:14;78663.31;;;-146.39;81.23
40460;BME280;26164;51.138;16.952;2023-02-28T02:43:06;78622.47;;;-146.39;82.59
40460;BME280;26164;51.138;16.952;2023-02-28T02:46:08;78667.41;;;-146.39;83.28
40460;BME280;26164;51.138;16.952;2023-02-28T02:48:39;78659.25;;;-146.39;86.62
40460;BME280;26164;51.138;16.952;2023-02-28T02:51:13;78642.91;;;-146.39;87.37
40460;BME280;26164;51.138;16.952;2023-02-28T02:53:49;78655.16;;;-146.39;86.71
40460;BME280;26164;51.138;16.952;2023-02-28T02:56:21;78669.47;;;-146.39;85.45
40460;BME280;26164;51.138;16.952;2023-02-28T02:58:49;78679.66;;;-146.39;85.77
40460;BME280;26164;51.138;16.952;2023-02-28T03:01:20;78687.84;;;-146.39;85.77
40460;BME280;26164;51.138;16.952;2023-02-28T03:03:58;78673.53;;;-146.39;85.67
40460;BME280;26164;51.138;16.952;2023-02-28T03:06:25;78704.19;;;-146.39;86.03
40460;BME280;26164;51.138;16.952;2023-02-28T03:08:51;78687.84;;;-146.39;80.31
40460;BME280;26164;51.138;16.952;2023-02-28T03:11:18;78687.84;;;-146.39;84.43
40460;BME280;26164;51.138;16.952;2023-02-28T03:19:51;78675.59;;;-146.39;84.01
40460;BME280;26164;51.138;16.952;2023-02-28T03:25:09;78685.78;;;-146.39;88.93
40460;BME280;26164;51.138;16.952;2023-02-28T03:30:27;78691.91;;;-146.39;85.53
40460;BME280;26164;51.138;16.952;2023-02-28T03:35:32;78651.06;;;-146.39;86.30
40460;BME280;26164;51.138;16.952;2023-02-28T03:38:31;78679.66;;;-146.39;85.85
40460;BME280;26164;51.138;16.952;2023-02-28T03:41:10;78691.91;;;-146.39;86.81
40460;BME280;26164;51.138;16.952;2023-02-28T03:43:42;78685.78;;;-146.39;87.50
40460;BME280;26164;51.138;16.952;2023-02-28T03:46:15;78671.50;;;-146.39;86.05
40460;BME280;26164;51.138;16.952;2023-02-28T03:48:46;78685.78;;;-146.39;85.90
40460;BME280;26164;51.138;16.952;2023-02-28T03:51:17;78671.50;;;-146.39;86.28
40460;BME280;26164;51.138;16.952;2023-02-28T03:53:50;78689.88;;;-146.39;86.75
40460;BME280;26164;51.138;16.952;2023-02-28T03:56:32;78700.09;;;-146.39;87.16
40460;BME280;26164;51.138;16.952;2023-02-28T03:59:21;78669.47;;;-146.39;87.38
40460;BME280;26164;51.138;16.952;2023-02-28T04:01:49;78675.59;;;-146.39;86.89
40460;BME280;26164;51.138;16.952;2023-02-28T04:04:17;78691.91;;;-146.39;86.77
40460;BME280;26164;51.138;16.952;2023-02-28T04:06:43;78675.59;;;-146.39;87.60
40460;BME280;26164;51.138;16.952;2023-02-28T04:09:12;78661.28;;;-146.39;88.51
40460;BME280;26164;51.138;16.952;2023-02-28T04:11:41;78655.16;;;-146.39;88.80
40460;BME280;26164;51.138;16.952;2023-02-28T04:14:09;78675.59;;;-146.39;89.35
40460;BME280;26164;51.138;16.952;2023-02-28T04:16:37;78651.06;;;-146.39;89.58
40460;BME280;26164;51.138;16.952;2023-02-28T04:19:06;78657.19;;;-146.39;89.37
40460;BME280;26164;51.138;16.952;2023-02-28T04:21:42;78667.41;;;-146.39;88.82
40460;BME280;26164;51.138;16.952;2023-02-28T04:24:11;78708.25;;;-146.39;91.65
40460;BME280;26164;51.138;16.952;2023-02-28T04:26:41;78667.41;;;-146.39;90.79
40460;BME280;26164;51.138;16.952;2023-02-28T04:29:11;78661.28;;;-146.39;90.24
40460;BME280;26164;51.138;16.952;2023-02-28T04:31:37;78675.59;;;-146.39;90.19
40460;BME280;26164;51.138;16.952;2023-02-28T04:34:03;78663.31;;;-146.39;89.16
40460;BME280;26164;51.138;16.952;2023-02-28T04:36:29;78659.25;;;-146.39;88.11
40460;BME280;26164;51.138;16.952;2023-02-28T04:38:56;78687.84;;;-146.39;86.97
40460;BME280;26164;51.138;16.952;2023-02-28T04:41:22;78757.28;;;-146.39;89.91
40460;BME280;26164;51.138;16.952;2023-02-28T04:43:48;78726.66;;;-146.39;89.67
40460;BME280;26164;51.138;16.952;2023-02-28T04:46:14;78716.44;;;-146.39;89.11
40460;BME280;26164;51.138;16.952;2023-02-28T04:48:41;78720.53;;;-146.39;87.95
40460;BME280;26164;51.138;16.952;2023-02-28T04:51:09;78687.84;;;-146.39;86.81
40460;BME280;26164;51.138;16.952;2023-02-28T04:53:37;78679.66;;;-146.39;86.56
40460;BME280;26164;51.138;16.952;2023-02-28T04:56:05;78687.84;;;-146.39;87.47
40460;BME280;26164;51.138;16.952;2023-02-28T04:58:32;78696.00;;;-146.39;89.14
40460;BME280;26164;51.138;16.952;2023-02-28T05:01:14;78710.31;;;-146.39;90.57
40460;BME280;26164;51.138;16.952;2023-02-28T05:03:43;78687.84;;;-146.39;88.64
40460;BME280;26164;51.138;16.952;2023-02-28T05:06:10;78671.50;;;-146.39;87.07
40460;BME280;26164;51.138;16.952;2023-02-28T05:08:37;78675.59;;;-146.39;86.23
40460;BME280;26164;51.138;16.952;2023-02-28T05:11:05;78691.91;;;-146.39;86.21
40460;BME280;26164;51.138;16.952;2023-02-28T05:13:32;78687.84;;;-146.39;86.06
40460;BME280;26164;51.138;16.952;2023-02-28T05:15:59;78700.09;;;-146.39;86.48
40460;BME280;26164;51.138;16.952;2023-02-28T05:18:25;78724.59;;;-146.39;87.83
40460;BME280;26164;51.138;16.952;2023-02-28T05:20:51;78696.00;;;-146.39;86.09
40460;BME280;26164;51.138;16.952;2023-02-28T05:23:19;78679.66;;;-146.39;85.88
40460;BME280;26164;51.138;16.952;2023-02-28T05:25:48;78687.84;;;-146.39;85.79
40460;BME280;26164;51.138;16.952;2023-02-28T05:28:22;78679.66;;;-146.39;83.70
40460;BME280;26164;51.138;16.952;2023-02-28T05:30:50;78691.91;;;-146.39;84.24
40460;BME280;26164;51.138;16.952;2023-02-28T05:34:00;78669.47;;;-146.39;85.08
40460;BME280;26164;51.138;16.952;2023-02-28T05:37:16;78667.41;;;-146.39;85.04
40460;BME280;26164;51.138;16.952;2023-02-28T05:40:12;78671.50;;;-146.39;84.52
40460;BME280;26164;51.138;16.952;2023-02-28T06:27:06;78802.22;;;-146.39;89.72
40460;BME280;26164;51.138;16.952;2023-02-28T06:29:34;78834.91;;;-146.39;90.13
40460;BME280;26164;51.138;16.952;2023-02-28T06:32:00;78818.56;;;-146.39;88.76
40460;BME280;26164;51.138;16.952;2023-02-28T06:34:27;78794.06;;;-146.39;86.31
40460;BME280;26164;51.138;16.952;2023-02-28T06:36:53;78794.06;;;-146.39;86.60
40460;BME280;26164;51.138;16.952;2023-02-28T06:39:22;78794.06;;;-146.39;87.78
40460;BME280;26164;51.138;16.952;2023-02-28T06:41:48;78792.00;;;-146.39;87.19
40460;BME280;26164;51.138;16.952;2023-02-28T06:44:16;78789.97;;;-146.39;86.80
40460;BME280;26164;51.138;16.952;2023-02-28T06:46:44;78822.66;;;-146.39;86.51
40460;BME280;26164;51.138;16.952;2023-02-28T06:49:11;78822.66;;;-146.39;86.44
40460;BME280;26164;51.138;16.952;2023-02-28T06:51:39;78773.63;;;-146.39;87.32
40460;BME280;26164;51.138;16.952;2023-02-28T06:54:05;78773.63;;;-146.39;85.38
40460;BME280;26164;51.138;16.952;2023-02-28T06:56:34;78761.38;;;-146.39;84.37
40460;BME280;26164;51.138;16.952;2023-02-28T06:59:01;78740.94;;;-146.39;84.22
40460;BME280;26164;51.138;16.952;2023-02-28T07:01:26;78736.88;;;-146.39;83.96
40460;BME280;26164;51.138;16.952;2023-02-28T07:03:54;78712.34;;;-146.39;83.53
40460;BME280;26164;51.138;16.952;2023-02-28T07:06:22;78708.25;;;-146.39;82.16
40460;BME280;26164;51.138;16.952;2023-02-28T07:08:50;78700.09;;;-146.39;81.55
40460;BME280;26164;51.138;16.952;2023-02-28T07:11:16;78706.22;;;-146.39;81.39
40460;BME280;26164;51.138;16.952;2023-02-28T07:13:42;78691.91;;;-146.39;80.95
40460;BME280;26164;51.138;16.952;2023-02-28T07:16:10;78691.91;;;-146.39;80.39
40460;BME280;26164;51.138;16.952;2023-02-28T07:18:38;78687.84;;;-146.39;78.70
40460;BME280;26164;51.138;16.952;2023-02-28T07:21:05;78691.91;;;-146.39;78.56
40460;BME280;26164;51.138;16.952;2023-02-28T07:23:33;78675.59;;;-146.39;76.56
40460;BME280;26164;51.138;16.952;2023-02-28T07:25:59;78700.09;;;-146.39;74.82
40460;BME280;26164;51.138;16.952;2023-02-28T07:28:26;78689.88;;;-146.39;71.93
40460;BME280;26164;51.138;16.952;2023-02-28T07:30:52;78687.84;;;-146.39;71.16
40460;BME280;26164;51.138;16.952;2023-02-28T07:33:18;78687.84;;;-146.39;70.02
40460;BME280;26164;51.138;16.952;2023-02-28T07:35:44;78675.59;;;-146.39;69.28
40460;BME280;26164;51.138;16.952;2023-02-28T07:38:10;78642.91;;;-146.39;67.89
40460;BME280;26164;51.138;16.952;2023-02-28T07:40:37;78659.25;;;-146.39;64.28
40460;BME280;26164;51.138;16.952;2023-02-28T07:43:03;78704.19;;;-146.39;65.18
40460;BME280;26164;51.138;16.952;2023-02-28T07:45:29;78634.72;;;-146.39;64.04
40460;BME280;26164;51.138;16.952;2023-02-28T07:48:11;78630.66;;;-146.39;63.75
40460;BME280;26164;51.138;16.952;2023-02-28T07:50:38;78638.81;;;-146.39;62.76
40460;BME280;26164;51.138;16.952;2023-02-28T07:53:06;78624.53;;;-146.39;62.04
40460;BME280;26164;51.138;16.952;2023-02-28T07:55:33;78624.53;;;-146.39;59.09
40460;BME280;26164;51.138;16.952;2023-02-28T07:57:59;78614.31;;;-146.39;57.15
40460;BME280;26164;51.138;16.952;2023-02-28T08:00:26;78597.97;;;-146.39;56.06
40460;BME280;26164;51.138;16.952;2023-02-28T08:02:51;78585.72;;;-146.39;55.66
40460;BME280;26164;51.138;16.952;2023-02-28T08:05:23;78604.09;;;-146.39;55.33
40460;BME280;26164;51.138;16.952;2023-02-28T08:07:49;78573.47;;;-146.39;55.19
40460;BME280;26164;51.138;16.952;2023-02-28T08:10:18;78548.94;;;-146.39;53.83
40460;BME280;26164;51.138;16.952;2023-02-28T08:12:44;78557.13;;;-146.39;52.96
40460;BME280;26164;51.138;16.952;2023-02-28T08:15:10;78544.84;;;-146.39;52.61
40460;BME280;26164;51.138;16.952;2023-02-28T08:17:36;78557.13;;;-146.39;53.85
40460;BME280;26164;51.138;16.952;2023-02-28T08:20:02;78516.25;;;-146.39;52.48
40460;BME280;26164;51.138;16.952;2023-02-28T08:22:29;78524.44;;;-146.39;51.94
40460;BME280;26164;51.138;16.952;2023-02-28T08:24:55;78532.59;;;-146.39;51.21
40460;BME280;26164;51.138;16.952;2023-02-28T08:27:22;78493.81;;;-146.39;50.62
40460;BME280;26164;51.138;16.952;2023-02-28T08:29:49;78512.19;;;-146.39;50.61
40460;BME280;26164;51.138;16.952;2023-02-28T08:32:15;78471.34;;;-146.39;50.28
40460;BME280;26164;51.138;16.952;2023-02-28T08:34:41;78579.59;;;-146.39;50.35
40460;BME280;26164;51.138;16.952;2023-02-28T08:37:07;78532.59;;;-146.39;50.39
40460;BME280;26164;51.138;16.952;2023-02-28T08:39:36;78557.13;;;-146.39;49.95
40460;BME280;26164;51.138;16.952;2023-02-28T08:42:03;78597.97;;;-146.39;49.70
40460;BME280;26164;51.138;16.952;2023-02-28T08:44:32;78618.38;;;-146.39;50.73
40460;BME280;26164;51.138;16.952;2023-02-28T08:46:58;78622.47;;;-146.39;50.47
40460;BME280;26164;51.138;16.952;2023-02-28T08:49:24;78589.78;;;-146.39;50.25
40460;BME280;26164;51.138;16.952;2023-02-28T08:51:52;78563.25;;;-146.39;50.07
40460;BME280;26164;51.138;16.952;2023-02-28T08:54:18;78506.06;;;-146.39;49.07
40460;BME280;26164;51.138;16.952;2023-02-28T08:56:45;78506.06;;;-146.39;49.51
40460;BME280;26164;51.138;16.952;2023-02-28T08:59:13;78471.34;;;-146.39;49.15
40460;BME280;26164;51.138;16.952;2023-02-28T09:01:39;78479.50;;;-146.39;48.78
40460;BME280;26164;51.138;16.952;2023-02-28T09:04:07;78422.31;;;-146.39;48.25
40460;BME280;26164;51.138;16.952;2023-02-28T09:06:35;78391.69;;;-146.39;46.82
40460;BME280;26164;51.138;16.952;2023-02-28T09:09:01;78410.06;;;-146.39;47.02
40460;BME280;26164;51.138;16.952;2023-02-28T09:11:30;78354.91;;;-146.39;46.90
40460;BME280;26164;51.138;16.952;2023-02-28T09:13:57;78324.28;;;-146.39;47.05
40460;BME280;26164;51.138;16.952;2023-02-28T09:16:24;78483.59;;;-146.39;46.70
40460;BME280;26164;51.138;16.952;2023-02-28T09:18:50;78410.06;;;-146.39;47.06
40460;BME280;26164;51.138;16.952;2023-02-28T09:21:17;78412.09;;;-146.39;46.58
40460;BME280;26164;51.138;16.952;2023-02-28T09:23:45;78397.81;;;-146.39;47.50
40460;BME280;26164;51.138;16.952;2023-02-28T09:26:18;78373.28;;;-146.39;47.47
40460;BME280;26164;51.138;16.952;2023-02-28T09:28:45;78314.06;;;-146.39;46.32
40460;BME280;26164;51.138;16.952;2023-02-28T09:31:16;78316.09;;;-146.39;46.04
40460;BME280;26164;51.138;16.952;2023-02-28T09:33:50;78336.53;;;-146.39;46.34
40460;BME280;26164;51.138;16.952;2023-02-28T09:36:16;78324.28;;;-146.39;46.92
40460;BME280;26164;51.138;16.952;2023-02-28T09:38:43;78459.06;;;-146.39;47.20
40460;BME280;26164;51.138;16.952;2023-02-28T09:41:19;78467.25;;;-146.39;48.23
40460;BME280;26164;51.138;16.952;2023-02-28T09:43:48;78461.13;;;-146.39;47.00
40460;BME280;26164;51.138;16.952;2023-02-28T09:46:38;78455.00;;;-146.39;46.71
40460;BME280;26164;51.138;16.952;2023-02-28T09:49:12;78450.91;;;-146.39;46.89
40460;BME280;26164;51.138;16.952;2023-02-28T09:52:01;78426.41;;;-146.39;46.74
40460;BME280;26164;51.138;16.952;2023-02-28T09:54:29;78450.91;;;-146.39;47.05
40460;BME280;26164;51.138;16.952;2023-02-28T09:57:11;78467.25;;;-146.39;47.27
40460;BME280;26164;51.138;16.952;2023-02-28T09:59:52;78438.66;;;-146.39;46.91
40460;BME280;26164;51.138;16.952;2023-02-28T10:05:18;78418.22;;;-146.39;46.16
40460;BME280;26164;51.138;16.952;2023-02-28T10:07:53;78373.28;;;-146.39;45.93
40460;BME280;26164;51.138;16.952;2023-02-28T10:10:43;78385.56;;;-146.39;45.33
40460;BME280;26164;51.138;16.952;2023-02-28T10:16:06;78438.66;;;-146.39;47.63
40460;BME280;26164;51.138;16.952;2023-02-28T10:18:56;78493.81;;;-146.39;48.74
40460;BME280;26164;51.138;16.952;2023-02-28T10:21:29;78403.94;;;-146.39;48.37
40460;BME280;26164;51.138;16.952;2023-02-28T10:24:13;78410.06;;;-146.39;48.42
40460;BME280;26164;51.138;16.952;2023-02-28T10:26:47;78448.88;;;-146.39;48.96
40460;BME280;26164;51.138;16.952;2023-02-28T10:29:13;78446.81;;;-146.39;48.58
40460;BME280;26164;51.138;16.952;2023-02-28T10:31:40;78446.81;;;-146.39;48.53
40460;BME280;26164;51.138;16.952;2023-02-28T10:34:07;78459.06;;;-146.39;49.26
40460;BME280;26164;51.138;16.952;2023-02-28T10:36:40;78369.22;;;-146.39;48.30
40460;BME280;26164;51.138;16.952;2023-02-28T10:39:44;78318.16;;;-146.39;47.89
40460;BME280;26164;51.138;16.952;2023-02-28T10:42:25;78336.53;;;-146.39;47.69
40460;BME280;26164;51.138;16.952;2023-02-28T10:45:12;78340.63;;;-146.39;47.63
40460;BME280;26164;51.138;16.952;2023-02-28T10:47:59;78416.19;;;-146.39;48.67
40460;BME280;26164;51.138;16.952;2023-02-28T10:53:35;78385.56;;;-146.39;47.64
40460;BME280;26164;51.138;16.952;2023-02-28T11:01:19;78199.69;;;-146.39;45.32
40460;BME280;26164;51.138;16.952;2023-02-28T11:03:46;78299.75;;;-146.39;46.33
40460;BME280;26164;51.138;16.952;2023-02-28T11:06:30;78281.38;;;-146.39;46.48
40460;BME280;26164;51.138;16.952;2023-02-28T11:09:15;78285.47;;;-146.39;46.55
40460;BME280;26164;51.138;16.952;2023-02-28T11:11:47;78385.56;;;-146.39;47.69
40460;BME280;26164;51.138;16.952;2023-02-28T11:14:22;78324.28;;;-146.39;47.34
40460;BME280;26164;51.138;16.952;2023-02-28T11:16:51;78369.22;;;-146.39;47.31
40460;BME280;26164;51.138;16.952;2023-02-28T11:19:40;78324.28;;;-146.39;46.50
40460;BME280;26164;51.138;16.952;2023-02-28T11:22:18;78318.16;;;-146.39;47.02
40460;BME280;26164;51.138;16.952;2023-02-28T11:24:48;78238.50;;;-146.39;46.38
40460;BME280;26164;51.138;16.952;2023-02-28T11:29:58;78164.97;;;-146.39;45.65
40460;BME280;26164;51.138;16.952;2023-02-28T11:32:30;78160.88;;;-146.39;43.73
40460;BME280;26164;51.138;16.952;2023-02-28T11:35:26;78234.41;;;-146.39;45.30
40460;BME280;26164;51.138;16.952;2023-02-28T11:37:55;78291.59;;;-146.39;45.00
40460;BME280;26164;51.138;16.952;2023-02-28T11:40:31;78283.44;;;-146.39;46.19
40460;BME280;26164;51.138;16.952;2023-02-28T11:43:08;78320.19;;;-146.39;47.43
40460;BME280;26164;51.138;16.952;2023-02-28T11:48:18;78285.47;;;-146.39;48.38
40460;BME280;26164;51.138;16.952;2023-02-28T11:51:10;78218.06;;;-146.39;47.34
40460;BME280;26164;51.138;16.952;2023-02-28T11:54:09;78175.19;;;-146.39;46.76
40460;BME280;26164;51.138;16.952;2023-02-28T11:57:02;78136.38;;;-146.39;45.30
40460;BME280;26164;51.138;16.952;2023-02-28T11:59:47;78238.50;;;-146.39;46.79
40460;BME280;26164;51.138;16.952;2023-02-28T12:02:26;78275.25;;;-146.39;47.31
40460;BME280;26164;51.138;16.952;2023-02-28T12:10:46;78226.25;;;-146.39;46.00
40460;BME280;26164;51.138;16.952;2023-02-28T12:16:29;78115.97;;;-146.39;44.98
40460;BME280;26164;51.138;16.952;2023-02-28T12:19:08;78160.88;;;-146.39;45.00
40460;BME280;26164;51.138;16.952;2023-02-28T12:22:06;78085.31;;;-146.39;44.66
40460;BME280;26164;51.138;16.952;2023-02-28T12:24:50;78083.28;;;-146.39;44.13
40460;BME280;26164;51.138;16.952;2023-02-28T12:27:23;78185.41;;;-146.39;46.10
40460;BME280;26164;51.138;16.952;2023-02-28T12:29:58;78109.84;;;-146.39;45.52
40460;BME280;26164;51.138;16.952;2023-02-28T12:32:33;78197.66;;;-146.39;47.58
40460;BME280;26164;51.138;16.952;2023-02-28T12:37:36;78197.66;;;-146.39;48.27
40460;BME280;26164;51.138;16.952;2023-02-28T12:40:13;78162.94;;;-146.39;48.26
40460;BME280;26164;51.138;16.952;2023-02-28T12:42:45;78091.44;;;-146.39;47.40
40460;BME280;26164;51.138;16.952;2023-02-28T12:45:18;78128.22;;;-146.39;47.37
40460;BME280;26164;51.138;16.952;2023-02-28T12:47:57;78132.28;;;-146.39;47.66
40460;BME280;26164;51.138;16.952;2023-02-28T12:50:37;78101.66;;;-146.39;47.02
40460;BME280;26164;51.138;16.952;2023-02-28T12:58:45;78120.03;;;-146.39;47.46
40460;BME280;26164;51.138;16.952;2023-02-28T13:10:06;78038.34;;;-146.39;46.40
40460;BME280;26164;51.138;16.952;2023-02-28T13:12:47;78103.69;;;-146.39;47.17
40460;BME280;26164;51.138;16.952;2023-02-28T13:15:22;78083.28;;;-146.39;46.85
40460;BME280;26164;51.138;16.952;2023-02-28T13:17:53;78156.81;;;-146.39;47.15
40460;BME280;26164;51.138;16.952;2023-02-28T13:20:32;77942.38;;;-146.39;44.63
40460;BME280;26164;51.138;16.952;2023-02-28T13:29:32;77932.16;;;-146.39;42.86
40460;BME280;26164;51.138;16.952;2023-02-28T13:34:35;77958.69;;;-146.39;43.97
40460;BME280;26164;51.138;16.952;2023-02-28T13:56:08;77952.56;;;-146.39;42.07
40460;BME280;26164;51.138;16.952;2023-02-28T13:59:06;77809.63;;;-146.39;41.48
40460;BME280;26164;51.138;16.952;2023-02-28T14:02:17;77652.38;;;-146.39;40.04
40460;BME280;26164;51.138;16.952;2023-02-28T14:07:57;77830.03;;;-146.39;40.81
40460;BME280;26164;51.138;16.952;2023-02-28T14:10:41;77960.75;;;-146.39;42.07
40460;BME280;26164;51.138;16.952;2023-02-28T14:16:26;77838.22;;;-146.39;41.28
40460;BME280;26164;51.138;16.952;2023-02-28T14:22:32;77809.63;;;-146.39;39.46
40460;BME280;26164;51.138;16.952;2023-02-28T14:31:12;77846.38;;;-146.39;42.74
40460;BME280;26164;51.138;16.952;2023-02-28T14:37:33;77891.31;;;-146.39;42.52
40460;BME280;26164;51.138;16.952;2023-02-28T14:40:30;77883.13;;;-146.39;42.09
40460;BME280;26164;51.138;16.952;2023-02-28T14:43:16;77887.22;;;-146.39;42.17
40460;BME280;26164;51.138;16.952;2023-02-28T14:45:50;77899.47;;;-146.39;42.11
40460;BME280;26164;51.138;16.952;2023-02-28T14:48:22;78013.84;;;-146.39;44.28
40460;BME280;26164;51.138;16.952;2023-02-28T14:50:52;77985.25;;;-146.39;42.66
40460;BME280;26164;51.138;16.952;2023-02-28T14:53:21;78013.84;;;-146.39;43.06
40460;BME280;26164;51.138;16.952;2023-02-28T14:55:58;77956.66;;;-146.39;42.41
40460;BME280;26164;51.138;16.952;2023-02-28T14:58:35;77930.13;;;-146.39;42.20
40460;BME280;26164;51.138;16.952;2023-02-28T15:01:24;78024.06;;;-146.39;43.96
40460;BME280;26164;51.138;16.952;2023-02-28T15:04:02;77970.97;;;-146.39;44.46
40460;BME280;26164;51.138;16.952;2023-02-28T15:06:32;77905.59;;;-146.39;43.19
40460;BME280;26164;51.138;16.952;2023-02-28T15:09:14;77838.22;;;-146.39;42.34
40460;BME280;26164;51.138;16.952;2023-02-28T15:11:41;77899.47;;;-146.39;42.74
40460;BME280;26164;51.138;16.952;2023-02-28T15:14:18;77977.09;;;-146.39;43.24
40460;BME280;26164;51.138;16.952;2023-02-28T15:16:59;78013.84;;;-146.39;43.68
40460;BME280;26164;51.138;16.952;2023-02-28T15:19:40;78007.72;;;-146.39;44.62
40460;BME280;26164;51.138;16.952;2023-02-28T15:22:31;78120.03;;;-146.39;45.63
40460;BME280;26164;51.138;16.952;2023-02-28T15:25:09;78111.88;;;-146.39;45.69
40460;BME280;26164;51.138;16.952;2023-02-28T15:27:45;78058.78;;;-146.39;45.58
40460;BME280;26164;51.138;16.952;2023-02-28T15:30:26;78054.69;;;-146.39;45.67
40460;BME280;26164;51.138;16.952;2023-02-28T15:36:16;78120.03;;;-146.39;46.04
40460;BME280;26164;51.138;16.952;2023-02-28T15:38:52;78093.50;;;-146.39;45.46
40460;BME280;26164;51.138;16.952;2023-02-28T15:41:35;78120.03;;;-146.39;46.17
40460;BME280;26164;51.138;16.952;2023-02-28T15:47:00;78093.50;;;-146.39;45.84
40460;BME280;26164;51.138;16.952;2023-02-28T15:49:38;78177.22;;;-146.39;46.83
40460;BME280;26164;51.138;16.952;2023-02-28T15:52:05;78189.47;;;-146.39;46.67
40460;BME280;26164;51.138;16.952;2023-02-28T15:54:36;78095.53;;;-146.39;45.96